createdAt,value
2023-08-22T00:00:32.568Z,17.83
2023-08-22T00:03:19.796Z,17.80
2023-08-22T00:05:46.729Z,17.79
2023-08-22T00:08:13.572Z,17.76
2023-08-22T00:10:41.028Z,17.73
2023-08-22T00:13:07.871Z,17.72
2023-08-22T00:15:34.958Z,17.70
2023-08-22T00:18:02.192Z,17.69
2023-08-22T00:20:29.222Z,17.69
2023-08-22T00:22:56.150Z,17.70
2023-08-22T00:25:22.998Z,17.72
2023-08-22T00:27:49.840Z,17.75
2023-08-22T00:30:16.679Z,17.83
2023-08-22T00:32:43.677Z,17.89
2023-08-22T00:35:12.522Z,17.93
2023-08-22T00:37:39.661Z,17.98
2023-08-22T00:40:07.936Z,17.99
2023-08-22T00:42:34.783Z,17.97
2023-08-22T00:45:02.846Z,17.94
2023-08-22T00:47:30.236Z,17.91
2023-08-22T00:49:57.244Z,17.90
2023-08-22T00:52:24.087Z,17.89
2023-08-22T00:54:51.749Z,17.84
2023-08-22T00:57:18.791Z,17.81
2023-08-22T00:59:45.736Z,17.78
2023-08-22T01:02:15.367Z,17.76
2023-08-22T01:04:44.026Z,17.73
2023-08-22T01:07:27.456Z,17.72
2023-08-22T01:10:00.038Z,17.70
2023-08-22T01:12:33.020Z,17.69
2023-08-22T01:15:11.228Z,17.71
2023-08-22T01:17:39.594Z,17.72
2023-08-22T01:20:12.487Z,17.74
2023-08-22T01:22:42.515Z,17.74
2023-08-22T01:25:09.672Z,17.73
2023-08-22T01:27:59.333Z,17.72
2023-08-22T01:30:34.195Z,17.69
2023-08-22T01:33:07.642Z,17.67
2023-08-22T01:35:35.624Z,17.61
2023-08-22T01:38:03.529Z,17.60
2023-08-22T01:40:31.040Z,17.61
2023-08-22T01:43:00.341Z,17.60
2023-08-22T01:45:27.592Z,17.58
2023-08-22T01:47:54.627Z,17.56
2023-08-22T01:50:21.681Z,17.57
2023-08-22T01:52:48.933Z,17.61
2023-08-22T01:55:16.395Z,17.60
2023-08-22T01:57:45.791Z,17.58
2023-08-22T02:00:13.350Z,17.55
2023-08-22T02:02:40.270Z,17.54
2023-08-22T02:05:08.206Z,17.52
2023-08-22T02:07:36.363Z,17.55
2023-08-22T02:10:06.862Z,17.56
2023-08-22T02:12:33.799Z,17.55
2023-08-22T02:15:01.081Z,17.53
2023-08-22T02:17:28.210Z,17.51
2023-08-22T02:19:57.761Z,17.50
2023-08-22T02:22:24.652Z,17.49
2023-08-22T02:24:51.491Z,17.47
2023-08-22T02:27:18.435Z,17.43
2023-08-22T02:29:45.274Z,17.40
2023-08-22T02:32:12.115Z,17.36
2023-08-22T02:34:41.216Z,17.35
2023-08-22T02:37:08.255Z,17.33
2023-08-22T02:39:35.103Z,17.29
2023-08-22T02:42:02.755Z,17.23
2023-08-22T02:44:29.710Z,17.20
2023-08-22T02:46:56.645Z,17.16
2023-08-22T02:49:23.486Z,17.13
2023-08-22T02:51:50.322Z,17.11
2023-08-22T02:54:17.274Z,17.09
2023-08-22T02:56:44.212Z,17.07
2023-08-22T02:59:11.264Z,17.06
2023-08-22T03:01:38.097Z,17.05
2023-08-22T03:04:05.449Z,17.03
2023-08-22T03:06:32.292Z,17.03
2023-08-22T03:09:00.575Z,17.03
2023-08-22T03:11:28.737Z,17.03
2023-08-22T03:13:56.096Z,17.01
2023-08-22T03:16:23.672Z,17.02
2023-08-22T03:18:50.697Z,17.02
2023-08-22T03:21:17.640Z,17.02
2023-08-22T03:23:45.404Z,17.01
2023-08-22T03:26:14.765Z,16.99
2023-08-22T03:28:42.279Z,16.96
2023-08-22T03:31:09.527Z,16.94
2023-08-22T03:33:36.478Z,16.91
2023-08-22T03:36:06.692Z,16.87
2023-08-22T03:38:35.159Z,16.85
2023-08-22T03:41:03.536Z,16.82
2023-08-22T03:43:30.681Z,16.80
2023-08-22T03:45:58.001Z,16.78
2023-08-22T03:48:25.256Z,16.78
2023-08-22T03:50:53.053Z,16.77
2023-08-22T03:53:20.004Z,16.78
2023-08-22T03:55:47.042Z,16.81
2023-08-22T03:58:13.985Z,16.85
2023-08-22T04:00:41.048Z,16.88
2023-08-22T04:03:07.998Z,16.89
2023-08-22T04:05:35.125Z,16.91
2023-08-22T04:08:02.688Z,16.93
2023-08-22T04:10:29.621Z,16.95
2023-08-22T04:12:56.564Z,17.00
2023-08-22T04:15:23.558Z,17.04
2023-08-22T04:17:51.485Z,17.08
2023-08-22T04:20:18.828Z,17.07
2023-08-22T04:22:45.673Z,17.05
2023-08-22T04:25:14.163Z,17.03
2023-08-22T04:27:43.179Z,17.04
2023-08-22T04:30:12.278Z,17.06
2023-08-22T04:32:39.445Z,17.08
2023-08-22T04:35:08.172Z,17.08
2023-08-22T04:37:38.325Z,17.08
2023-08-22T04:40:06.166Z,17.10
2023-08-22T04:42:51.734Z,17.10
2023-08-22T04:45:19.083Z,17.14
2023-08-22T04:47:46.582Z,17.20
2023-08-22T04:50:14.101Z,17.26
2023-08-22T04:52:41.044Z,17.34
2023-08-22T04:55:08.605Z,17.42
2023-08-22T04:57:35.454Z,17.51
2023-08-22T05:00:04.642Z,17.55
2023-08-22T05:02:31.641Z,17.63
2023-08-22T05:04:58.841Z,17.70
2023-08-22T05:07:26.191Z,17.79
2023-08-22T05:09:53.439Z,17.84
2023-08-22T05:12:21.687Z,17.86
2023-08-22T05:14:48.633Z,17.88
2023-08-22T05:17:15.580Z,17.90
2023-08-22T05:19:43.062Z,17.90
2023-08-22T05:22:10.206Z,17.91
2023-08-22T05:24:39.410Z,17.96
2023-08-22T05:27:06.690Z,18.03
2023-08-22T05:29:34.558Z,18.10
2023-08-22T05:32:02.040Z,18.16
2023-08-22T05:34:29.225Z,18.22
2023-08-22T05:36:56.168Z,18.29
2023-08-22T05:39:23.630Z,18.36
2023-08-22T05:41:50.467Z,18.41
2023-08-22T05:44:18.234Z,18.45
2023-08-22T05:46:45.580Z,18.47
2023-08-22T05:49:13.137Z,18.53
2023-08-22T05:51:40.522Z,18.60
2023-08-22T05:54:07.437Z,18.72
2023-08-22T05:56:34.893Z,18.85
2023-08-22T05:59:01.841Z,18.98
2023-08-22T06:01:28.913Z,19.11
2023-08-22T06:03:56.044Z,19.23
2023-08-22T06:06:22.976Z,19.36
2023-08-22T06:08:50.324Z,19.48
2023-08-22T06:11:17.780Z,19.57
2023-08-22T06:13:44.597Z,19.63
2023-08-22T06:16:11.714Z,19.72
2023-08-22T06:18:38.515Z,19.80
2023-08-22T06:21:05.354Z,19.87
2023-08-22T06:23:32.281Z,19.97
2023-08-22T06:25:59.238Z,20.08
2023-08-22T06:28:26.078Z,20.16
2023-08-22T06:30:54.769Z,20.17
2023-08-22T06:33:21.810Z,20.20
2023-08-22T06:35:48.855Z,20.22
2023-08-22T06:38:15.703Z,20.28
2023-08-22T06:40:43.259Z,20.36
2023-08-22T06:43:10.099Z,20.42
2023-08-22T06:45:38.110Z,20.47
2023-08-22T06:48:05.914Z,20.54
2023-08-22T06:50:32.974Z,20.66
2023-08-22T06:53:00.746Z,20.82
2023-08-22T06:55:27.590Z,21.04
2023-08-22T06:57:54.421Z,21.24
2023-08-22T07:00:22.287Z,21.41
2023-08-22T07:02:49.400Z,21.53
2023-08-22T07:05:18.339Z,21.65
2023-08-22T07:07:45.457Z,21.65
2023-08-22T07:10:13.823Z,21.66
2023-08-22T07:12:42.475Z,21.71
2023-08-22T07:15:09.789Z,21.76
2023-08-22T07:17:36.705Z,21.81
2023-08-22T07:20:04.695Z,21.83
2023-08-22T07:22:33.071Z,21.89
2023-08-22T07:25:00.018Z,21.96
2023-08-22T07:27:26.962Z,22.03
2023-08-22T07:29:54.005Z,22.12
2023-08-22T07:32:21.568Z,22.19
2023-08-22T07:34:48.607Z,22.25
2023-08-22T07:37:16.576Z,22.32
2023-08-22T07:39:43.728Z,22.41
2023-08-22T07:42:10.565Z,22.47
2023-08-22T07:44:37.409Z,22.50
2023-08-22T07:47:04.456Z,22.57
2023-08-22T07:49:31.316Z,22.69
2023-08-22T07:51:59.166Z,22.82
2023-08-22T07:54:26.116Z,22.92
2023-08-22T07:57:01.710Z,23.04
2023-08-22T07:59:35.452Z,23.14
2023-08-22T08:02:02.353Z,23.23
2023-08-22T08:04:31.389Z,23.35
2023-08-22T08:06:58.232Z,23.46
2023-08-22T08:09:35.036Z,23.56
2023-08-22T08:12:04.454Z,23.65
2023-08-22T08:14:31.757Z,23.73
2023-08-22T08:16:58.704Z,23.82
2023-08-22T08:19:27.431Z,23.89
2023-08-22T08:21:54.856Z,24.00
2023-08-22T08:24:22.089Z,24.15
2023-08-22T08:26:49.158Z,24.28
2023-08-22T08:29:18.542Z,24.35
2023-08-22T08:31:45.588Z,24.40
2023-08-22T08:34:12.448Z,24.55
2023-08-22T08:36:39.266Z,24.70
2023-08-22T08:39:06.518Z,24.81
2023-08-22T08:41:34.397Z,24.91
2023-08-22T08:44:02.045Z,25.00
2023-08-22T08:46:30.813Z,25.13
2023-08-22T08:48:58.288Z,25.27
2023-08-22T08:51:25.331Z,25.35
2023-08-22T08:53:53.097Z,25.46
2023-08-22T08:56:20.621Z,25.60
2023-08-22T08:58:49.237Z,25.75
2023-08-22T09:01:16.608Z,25.84
2023-08-22T09:03:45.476Z,25.93
2023-08-22T09:06:12.320Z,26.05
2023-08-22T09:08:39.977Z,26.18
2023-08-22T09:11:07.332Z,26.34
2023-08-22T09:13:54.028Z,26.46
2023-08-22T09:16:27.297Z,26.60
2023-08-22T09:19:01.161Z,26.68
2023-08-22T09:21:28.908Z,26.71
2023-08-22T09:24:09.387Z,26.70
2023-08-22T09:26:37.436Z,26.84
2023-08-22T09:29:07.971Z,26.97
2023-08-22T09:31:36.192Z,27.04
2023-08-22T09:34:09.118Z,27.12
2023-08-22T09:36:44.811Z,27.29
2023-08-22T09:39:21.331Z,27.39
2023-08-22T09:41:53.793Z,27.44
2023-08-22T09:44:25.645Z,27.51
2023-08-22T09:46:54.246Z,27.64
2023-08-22T09:49:22.215Z,27.77
2023-08-22T09:51:51.827Z,27.89
2023-08-22T09:54:18.769Z,28.06
2023-08-22T09:56:46.532Z,28.26
2023-08-22T09:59:16.847Z,28.39
2023-08-22T10:01:44.070Z,28.54
2023-08-22T10:04:13.235Z,28.77
2023-08-22T10:09:13.427Z,29.08
2023-08-22T10:11:49.078Z,29.23
2023-08-22T10:14:46.231Z,29.39
2023-08-22T10:17:13.991Z,29.62
2023-08-22T10:19:44.227Z,29.84
2023-08-22T10:22:13.057Z,30.08
2023-08-22T10:24:43.762Z,30.23
2023-08-22T10:27:16.271Z,30.47
2023-08-22T10:29:48.060Z,30.60
2023-08-22T10:32:14.932Z,30.80
2023-08-22T10:34:41.844Z,31.09
2023-08-22T10:37:22.917Z,31.36
2023-08-22T10:39:50.087Z,31.58
2023-08-22T10:42:18.139Z,31.73
2023-08-22T10:44:52.362Z,31.89
2023-08-22T10:47:20.907Z,32.03
2023-08-22T10:50:15.910Z,32.08
2023-08-22T10:52:44.385Z,32.34
2023-08-22T10:55:14.750Z,32.57
2023-08-22T10:57:46.917Z,32.66
2023-08-22T11:00:20.203Z,32.75
2023-08-22T11:02:57.933Z,32.86
2023-08-22T11:05:27.443Z,33.03
2023-08-22T11:07:54.240Z,33.40
2023-08-22T11:10:25.221Z,33.55
2023-08-22T11:12:55.206Z,33.69
2023-08-22T11:15:22.553Z,33.80
2023-08-22T11:17:51.407Z,33.68
2023-08-22T11:20:23.789Z,33.72
2023-08-22T11:22:50.893Z,33.78
2023-08-22T11:25:25.881Z,33.85
2023-08-22T11:27:53.444Z,33.74
2023-08-22T11:30:20.912Z,33.67
2023-08-22T11:32:48.295Z,33.56
2023-08-22T11:35:16.628Z,33.54
2023-08-22T11:37:44.436Z,33.61
2023-08-22T11:40:16.629Z,33.72
2023-08-22T11:42:46.981Z,33.80
2023-08-22T11:45:17.769Z,33.74
2023-08-22T11:47:49.626Z,33.65
2023-08-22T11:50:24.318Z,33.89
2023-08-22T11:53:19.054Z,34.07
2023-08-22T11:55:49.846Z,34.02
2023-08-22T11:58:17.492Z,33.96
2023-08-22T12:00:44.962Z,33.98
2023-08-22T12:03:12.101Z,33.86
2023-08-22T12:05:41.901Z,33.77
2023-08-22T12:08:11.611Z,33.64
2023-08-22T12:10:42.449Z,33.40
2023-08-22T12:13:10.327Z,33.19
2023-08-22T12:15:37.908Z,33.01
2023-08-22T12:18:05.476Z,32.97
2023-08-22T12:20:33.098Z,33.14
2023-08-22T12:23:01.675Z,33.48
2023-08-22T12:25:28.512Z,33.84
2023-08-22T12:27:55.561Z,34.15
2023-08-22T12:30:22.618Z,34.44
2023-08-22T12:32:49.778Z,34.82
2023-08-22T12:35:16.801Z,35.18
2023-08-22T12:37:44.140Z,35.57
2023-08-22T12:40:11.650Z,35.83
2023-08-22T12:42:47.916Z,36.10
2023-08-22T12:45:14.711Z,36.42
2023-08-22T12:47:43.334Z,36.59
2023-08-22T12:50:11.264Z,36.59
2023-08-22T12:52:38.519Z,36.66
2023-08-22T12:55:09.151Z,36.69
2023-08-22T12:57:37.437Z,36.71
2023-08-22T13:00:05.195Z,36.76
2023-08-22T13:02:32.319Z,36.74
2023-08-22T13:04:59.788Z,36.45
2023-08-22T13:07:26.831Z,36.04
2023-08-22T13:09:53.773Z,35.70
2023-08-22T13:12:20.622Z,35.36
2023-08-22T13:14:47.457Z,35.07
2023-08-22T13:17:14.404Z,34.73
2023-08-22T13:19:41.544Z,34.39
2023-08-22T13:22:08.409Z,34.17
2023-08-22T13:24:35.352Z,34.04
2023-08-22T13:27:02.283Z,33.99
2023-08-22T13:29:29.127Z,34.25
2023-08-22T13:31:56.104Z,34.76
2023-08-22T13:34:23.218Z,35.23
2023-08-22T13:36:50.482Z,35.37
2023-08-22T13:39:18.389Z,35.40
2023-08-22T13:41:47.423Z,35.39
2023-08-22T13:44:14.425Z,35.40
2023-08-22T13:46:42.652Z,35.65
2023-08-22T13:49:09.486Z,36.00
2023-08-22T13:51:36.329Z,36.02
2023-08-22T13:54:04.212Z,36.27
2023-08-22T13:56:31.876Z,36.46
2023-08-22T13:58:59.210Z,36.38
2023-08-22T14:01:27.369Z,36.14
2023-08-22T14:03:54.421Z,35.64
2023-08-22T14:06:21.481Z,35.09
2023-08-22T14:08:48.933Z,34.58
2023-08-22T14:11:15.963Z,34.06
2023-08-22T14:13:43.547Z,33.69
2023-08-22T14:16:10.869Z,33.31
2023-08-22T14:18:38.677Z,32.85
2023-08-22T14:21:06.212Z,32.46
2023-08-22T14:23:33.045Z,32.11
2023-08-22T14:25:59.992Z,31.81
2023-08-22T14:28:27.044Z,31.58
2023-08-22T14:31:01.630Z,31.38
2023-08-22T14:33:28.785Z,31.14
2023-08-22T14:35:56.766Z,31.00
2023-08-22T14:38:24.235Z,30.99
2023-08-22T14:40:55.694Z,31.00
2023-08-22T14:43:23.445Z,30.96
2023-08-22T14:45:51.436Z,30.83
2023-08-22T14:48:18.708Z,30.73
2023-08-22T14:50:46.018Z,30.64
2023-08-22T14:53:14.303Z,30.65
2023-08-22T14:55:55.867Z,30.81
2023-08-22T14:58:23.019Z,30.92
2023-08-22T15:00:50.235Z,30.92
2023-08-22T15:03:17.162Z,31.04
2023-08-22T15:05:44.256Z,31.43
2023-08-22T15:08:11.134Z,31.95
2023-08-22T15:10:38.246Z,32.58
2023-08-22T15:13:05.204Z,33.19
2023-08-22T15:15:32.303Z,33.43
2023-08-22T15:18:01.672Z,33.64
2023-08-22T15:20:28.729Z,33.62
2023-08-22T15:22:55.527Z,33.54
2023-08-22T15:25:23.493Z,33.25
2023-08-22T15:27:50.349Z,33.11
2023-08-22T15:30:17.285Z,33.17
2023-08-22T15:32:44.529Z,33.21
2023-08-22T15:35:11.484Z,33.56
2023-08-22T15:37:38.313Z,33.94
2023-08-22T15:40:06.181Z,33.78
2023-08-22T15:42:33.845Z,33.36
2023-08-22T15:45:01.199Z,32.89
2023-08-22T15:47:29.743Z,32.44
2023-08-22T15:49:57.641Z,32.04
2023-08-22T15:52:35.326Z,31.65
2023-08-22T15:55:08.637Z,31.20
2023-08-22T15:57:35.474Z,30.88
2023-08-22T16:00:03.155Z,30.63
2023-08-22T16:02:33.261Z,30.41
2023-08-22T16:05:00.606Z,30.23
2023-08-22T16:07:27.753Z,30.16
2023-08-22T16:09:54.699Z,30.08
2023-08-22T16:12:21.540Z,29.99
2023-08-22T16:14:48.375Z,29.95
2023-08-22T16:17:15.216Z,29.98
2023-08-22T16:19:42.017Z,29.98
2023-08-22T16:22:08.798Z,29.96
2023-08-22T16:24:35.744Z,29.86
2023-08-22T16:27:02.590Z,29.70
2023-08-22T16:29:29.525Z,29.57
2023-08-22T16:31:57.293Z,29.41
2023-08-22T16:34:24.149Z,29.24
2023-08-22T16:36:50.979Z,29.03
2023-08-22T16:39:18.737Z,28.75
2023-08-22T16:41:46.495Z,28.47
2023-08-22T16:44:13.542Z,28.27
2023-08-22T16:46:40.737Z,28.14
2023-08-22T16:49:10.607Z,28.05
2023-08-22T16:51:37.758Z,27.95
2023-08-22T16:54:08.215Z,27.87
2023-08-22T16:56:37.786Z,27.74
2023-08-22T16:59:09.329Z,27.60
2023-08-22T17:01:37.136Z,27.50
2023-08-22T17:04:04.191Z,27.40
2023-08-22T17:06:31.099Z,27.31
2023-08-22T17:08:59.269Z,27.20
2023-08-22T17:11:26.100Z,27.07
2023-08-22T17:13:53.057Z,26.87
2023-08-22T17:16:19.910Z,26.65
2023-08-22T17:18:47.043Z,26.41
2023-08-22T17:21:15.721Z,26.18
2023-08-22T17:23:44.197Z,26.00
2023-08-22T17:26:12.677Z,25.82
2023-08-22T17:28:40.560Z,25.66
2023-08-22T17:31:08.501Z,25.51
2023-08-22T17:33:39.036Z,25.37
2023-08-22T17:36:08.585Z,25.23
2023-08-22T17:38:36.313Z,25.12
2023-08-22T17:41:05.032Z,25.03
2023-08-22T17:43:33.539Z,24.91
2023-08-22T17:46:00.483Z,24.85
2023-08-22T17:48:27.868Z,24.78
2023-08-22T17:50:55.744Z,24.68
2023-08-22T17:53:22.993Z,24.65
2023-08-22T17:55:53.863Z,24.55
2023-08-22T17:58:21.302Z,24.44
2023-08-22T18:00:49.551Z,24.34
2023-08-22T18:03:16.755Z,24.25
2023-08-22T18:05:57.479Z,24.17
2023-08-22T18:08:25.027Z,24.08
2023-08-22T18:10:52.898Z,23.98
2023-08-22T18:13:20.250Z,23.89
2023-08-22T18:18:32.046Z,23.71
2023-08-22T18:21:03.267Z,23.62
2023-08-22T18:23:31.262Z,23.53
2023-08-22T18:26:02.330Z,23.44
2023-08-22T18:28:32.086Z,23.35
2023-08-22T18:31:02.638Z,23.28
2023-08-22T18:33:29.602Z,23.23
2023-08-22T18:35:56.549Z,23.19
2023-08-22T18:38:23.904Z,23.15
2023-08-22T18:40:54.218Z,23.12
2023-08-22T18:43:21.777Z,23.06
2023-08-22T18:45:49.167Z,23.02
2023-08-22T18:48:16.531Z,22.99
2023-08-22T18:50:43.521Z,22.93
2023-08-22T18:53:10.566Z,22.83
2023-08-22T18:55:37.508Z,22.77
2023-08-22T18:58:04.468Z,22.70
2023-08-22T19:00:31.444Z,22.64
2023-08-22T19:02:58.674Z,22.57
2023-08-22T19:05:25.910Z,22.49
2023-08-22T19:07:53.010Z,22.44
2023-08-22T19:10:20.248Z,22.39
2023-08-22T19:12:47.116Z,22.35
2023-08-22T19:15:13.981Z,22.30
2023-08-22T19:17:40.850Z,22.23
2023-08-22T19:20:08.578Z,22.19
2023-08-22T19:22:35.552Z,22.15
2023-08-22T19:25:02.780Z,22.12
2023-08-22T19:27:29.648Z,22.06
2023-08-22T19:29:56.564Z,22.04
2023-08-22T19:32:36.697Z,22.01
2023-08-22T19:35:10.721Z,21.97
2023-08-22T19:37:37.568Z,21.92
2023-08-22T19:40:05.028Z,21.87
2023-08-22T19:42:31.958Z,21.83
2023-08-22T19:45:02.006Z,21.81
2023-08-22T19:47:29.256Z,21.76
2023-08-22T19:49:56.378Z,21.71
2023-08-22T19:52:25.484Z,21.66
2023-08-22T19:54:52.514Z,21.61
2023-08-22T19:57:19.465Z,21.57
2023-08-22T19:59:46.404Z,21.57
2023-08-22T20:02:13.473Z,21.56
2023-08-22T20:04:40.902Z,21.55
2023-08-22T20:07:07.947Z,21.53
2023-08-22T20:09:36.040Z,21.52
2023-08-22T20:12:03.474Z,21.50
2023-08-22T20:14:31.341Z,21.49
2023-08-22T20:16:58.740Z,21.47
2023-08-22T20:19:25.638Z,21.45
2023-08-22T20:21:52.588Z,21.44
2023-08-22T20:24:19.536Z,21.42
2023-08-22T20:26:46.673Z,21.39
2023-08-22T20:29:13.613Z,21.36
2023-08-22T20:31:40.600Z,21.34
2023-08-22T20:34:07.607Z,21.32
2023-08-22T20:36:34.450Z,21.29
2023-08-22T20:39:04.464Z,21.27
2023-08-22T20:41:32.525Z,21.26
2023-08-22T20:43:59.797Z,21.24
2023-08-22T20:46:27.150Z,21.22
2023-08-22T20:48:54.240Z,21.21
2023-08-22T20:51:21.126Z,21.20
2023-08-22T20:53:47.972Z,21.20
2023-08-22T20:56:14.809Z,21.19
2023-08-22T20:58:41.657Z,21.18
2023-08-22T21:01:08.539Z,21.17
2023-08-22T21:03:35.716Z,21.16
2023-08-22T21:06:02.890Z,21.14
2023-08-22T21:08:29.736Z,21.11
2023-08-22T21:10:56.777Z,21.07
2023-08-22T21:13:23.624Z,21.02
2023-08-22T21:15:50.590Z,20.96
2023-08-22T21:18:17.620Z,20.93
2023-08-22T21:20:44.449Z,20.92
2023-08-22T21:23:11.290Z,20.85
2023-08-22T21:25:38.559Z,20.82
2023-08-22T21:28:05.609Z,20.78
2023-08-22T21:30:32.540Z,20.75
2023-08-22T21:32:59.471Z,20.74
2023-08-22T21:35:26.517Z,20.71
2023-08-22T21:37:53.368Z,20.68
2023-08-22T21:40:20.311Z,20.67
2023-08-22T21:42:47.348Z,20.67
2023-08-22T21:45:14.808Z,20.65
2023-08-22T21:47:42.601Z,20.63
2023-08-22T21:50:10.334Z,20.60
2023-08-22T21:52:38.115Z,20.56
2023-08-22T21:55:06.094Z,20.53
2023-08-22T21:57:33.416Z,20.48
2023-08-22T22:00:00.458Z,20.41
2023-08-22T22:02:27.713Z,20.35
2023-08-22T22:04:54.967Z,20.29
2023-08-22T22:07:22.022Z,20.24
2023-08-22T22:09:49.237Z,20.18
2023-08-22T22:12:16.219Z,20.13
2023-08-22T22:14:43.163Z,20.07
2023-08-22T22:17:09.990Z,20.01
2023-08-22T22:19:36.844Z,19.95
2023-08-22T22:22:03.880Z,19.90
2023-08-22T22:24:31.844Z,19.86
2023-08-22T22:26:58.687Z,19.84
2023-08-22T22:29:25.543Z,19.82
2023-08-22T22:31:52.380Z,19.83
2023-08-22T22:34:20.579Z,19.84
2023-08-22T22:36:48.817Z,19.85
2023-08-22T22:39:15.658Z,19.86
2023-08-22T22:41:42.497Z,19.87
2023-08-22T22:44:09.546Z,19.87
2023-08-22T22:46:36.433Z,19.90
2023-08-22T22:49:03.545Z,19.93
2023-08-22T22:51:30.377Z,19.94
2023-08-22T22:53:57.321Z,19.95
2023-08-22T22:56:24.174Z,19.96
2023-08-22T22:58:51.110Z,19.98
2023-08-22T23:01:17.962Z,20.01
2023-08-22T23:03:44.860Z,20.05
2023-08-22T23:06:11.945Z,20.07
2023-08-22T23:08:38.789Z,20.08
2023-08-22T23:11:07.217Z,20.11
2023-08-22T23:13:42.697Z,20.11
2023-08-22T23:16:09.606Z,20.10
2023-08-22T23:18:36.587Z,20.08
2023-08-22T23:21:03.529Z,20.06
2023-08-22T23:23:30.372Z,20.03
2023-08-22T23:26:00.080Z,20.02
2023-08-22T23:28:26.926Z,19.99
2023-08-22T23:30:53.803Z,19.97
2023-08-22T23:33:20.643Z,19.92
2023-08-22T23:35:47.444Z,19.90
2023-08-22T23:38:14.488Z,19.86
2023-08-22T23:40:41.435Z,19.80
2023-08-22T23:43:08.684Z,19.75
2023-08-22T23:45:35.539Z,19.71
2023-08-22T23:48:02.477Z,19.66
2023-08-22T23:50:30.672Z,19.63
2023-08-22T23:52:59.219Z,19.57
2023-08-22T23:55:26.164Z,19.52
2023-08-22T23:57:57.717Z,19.49
